Dawson Community Airport
KGDV : rendu visible

Aérodrome :











RETROUVEZ-NOUS SUR...

 
LOGIN :

S'inscrire | Disclaimer

   EN    FR    IT 

 









Légende :    VFR   VFR Marginal   IFR   IFR Intensif   IFR Très Intensif
Visi : 
Plafond : 
>= 8 km
>= 3000ft
5 à 8 km
1000 à 3000 ft
1500m à 5 km
500 à 1000 ft
800 à 1500m
200 à 500 ft
< 800m
< 200 ft
Symboles :   Orages  Brouillard  Fortes neiges  Fortes précipitations  Vent > 20 kt






- Altitude de l'aérodrome : 2458 ft


KGDV - Dawson Community

DERNIER METAR :
  • 231056Z AUTO 33011KT 10SM CLR M02/M04 A3000 RMK AO2 SLP177 T10221039 FZRANO

METARs EXPIRÉS :
  • 230956Z AUTO 34008KT 10SM CLR M02/M03 A3000 RMK AO2 SLP175 T10171033 FZRANO
  • 230856Z AUTO 32009KT 10SM CLR M01/M03 A2999 RMK AO2 SLP171 T10061028 53031 FZRANO

TAF KGDV
Valide du 23 à 06h jusqu'au 24 à 06h UTC


230520Z 2306/2406 31012KT P6SM SKC
FM240300 10007KT P6SM OVC070



MET'MAP, la Météo Aéronautique d'un coup d'oeil ! - Copyright ORBIFLY Décembre 2007 - Disclaimer

ORBIFLY MET'MAP TEAM :

Programmation & Développement : Alexandra Zaïnal
Sur une idée originale de : Baudouin d'Aumeries
Assistance à la programmation : Marc-Olivier Méhu
Soutien technique & logistique : Manuel Goepfert

Contact : metmap@orbifly.com




SOURCES & CREDITS :

   NOAA       Earth
Advisory